createdAt,value
2018-08-04T00:01:20.830Z,2.42
2018-08-04T00:03:49.620Z,2.50
2018-08-04T00:06:18.857Z,3.02
2018-08-04T00:08:48.160Z,4.37
2018-08-04T00:11:17.199Z,1.80
2018-08-04T00:13:45.827Z,1.85
2018-08-04T00:16:14.708Z,2.83
2018-08-04T00:18:43.614Z,2.98
2018-08-04T00:21:12.539Z,1.92
2018-08-04T00:23:41.774Z,2.60
2018-08-04T00:26:10.667Z,2.02
2018-08-04T00:28:39.564Z,3.40
2018-08-04T00:31:08.475Z,2.35
2018-08-04T00:33:37.367Z,3.92
2018-08-04T00:36:06.258Z,2.45
2018-08-04T00:38:35.168Z,2.00
2018-08-04T00:41:04.109Z,2.30
2018-08-04T00:43:33.009Z,2.95
2018-08-04T00:46:01.906Z,3.42
2018-08-04T00:48:30.760Z,2.12
2018-08-04T00:50:59.682Z,3.25
2018-08-04T00:53:28.586Z,2.98
2018-08-04T00:55:57.790Z,1.92
2018-08-04T00:58:26.683Z,2.40
2018-08-04T01:00:55.618Z,2.22
2018-08-04T01:03:24.537Z,2.42
2018-08-04T01:05:53.458Z,2.02
2018-08-04T01:08:22.356Z,7.08
2018-08-04T01:10:51.591Z,1.75
2018-08-04T01:13:20.223Z,2.65
2018-08-04T01:15:49.087Z,2.17
2018-08-04T01:18:18.020Z,2.95
2018-08-04T01:20:46.883Z,3.98
2018-08-04T01:23:15.772Z,3.75
2018-08-04T01:25:44.702Z,2.72
2018-08-04T01:28:13.559Z,2.55
2018-08-04T01:30:42.858Z,2.95
2018-08-04T01:33:11.744Z,2.22
2018-08-04T01:35:40.653Z,2.27
2018-08-04T01:38:09.579Z,2.45
2018-08-04T01:40:38.223Z,2.95
2018-08-04T01:43:07.112Z,2.52
2018-08-04T01:45:36.018Z,2.05
2018-08-04T01:48:04.885Z,2.47
2018-08-04T01:50:33.908Z,2.08
2018-08-04T01:53:02.813Z,3.15
2018-08-04T01:55:31.687Z,2.65
2018-08-04T01:58:00.604Z,2.98
2018-08-04T02:00:29.483Z,3.77
2018-08-04T02:02:58.672Z,3.20
2018-08-04T02:05:27.579Z,3.60
2018-08-04T02:07:56.479Z,2.70
2018-08-04T02:13:02.426Z,2.25
2018-08-04T02:15:31.273Z,5.42
2018-08-04T02:18:00.213Z,2.33
2018-08-04T02:20:29.099Z,3.15
2018-08-04T02:22:58.277Z,3.27
2018-08-04T02:25:27.230Z,3.20
2018-08-04T02:27:56.192Z,4.47
2018-08-04T02:30:25.750Z,2.60
2018-08-04T02:32:54.666Z,2.20
2018-08-04T02:35:23.868Z,2.58
2018-08-04T02:37:52.908Z,3.77
2018-08-04T02:40:21.976Z,2.67
2018-08-04T02:42:50.824Z,2.02
2018-08-04T02:45:19.689Z,2.20
2018-08-04T02:47:48.721Z,2.22
2018-08-04T02:50:17.636Z,2.30
2018-08-04T02:52:46.520Z,2.90
2018-08-04T02:55:15.589Z,3.02
2018-08-04T02:57:44.425Z,3.35
2018-08-04T03:00:13.838Z,2.62
2018-08-04T03:02:42.734Z,4.33
2018-08-04T03:05:11.606Z,3.35
2018-08-04T03:07:40.491Z,2.85
2018-08-04T03:10:09.406Z,3.55
2018-08-04T03:12:38.337Z,5.40
2018-08-04T03:15:07.616Z,3.62
2018-08-04T03:17:36.515Z,5.08
2018-08-04T03:20:06.549Z,5.28
2018-08-04T03:22:35.675Z,4.03
2018-08-04T03:25:04.661Z,4.65
2018-08-04T03:27:33.543Z,6.70
2018-08-04T03:30:02.451Z,3.83
2018-08-04T03:32:31.079Z,4.42
2018-08-04T03:34:59.990Z,4.37
2018-08-04T03:37:28.986Z,4.83
2018-08-04T03:39:57.850Z,6.53
2018-08-04T03:42:26.703Z,3.47
2018-08-04T03:44:55.543Z,4.62
2018-08-04T03:47:24.389Z,3.92
2018-08-04T03:49:53.250Z,4.40
2018-08-04T03:52:22.143Z,4.92
2018-08-04T03:54:51.022Z,4.50
2018-08-04T03:57:19.896Z,3.77
2018-08-04T03:59:48.822Z,4.35
2018-08-04T04:02:17.821Z,7.47
2018-08-04T04:04:46.692Z,5.72
2018-08-04T04:07:15.735Z,4.75
2018-08-04T04:09:44.683Z,3.10
2018-08-04T04:12:13.601Z,4.62
2018-08-04T04:14:42.495Z,3.55
2018-08-04T04:17:11.420Z,4.45
2018-08-04T04:19:40.285Z,5.10
2018-08-04T04:22:09.207Z,8.43
2018-08-04T04:24:38.128Z,7.00
2018-08-04T04:27:07.066Z,4.92
2018-08-04T04:29:35.928Z,6.17
2018-08-04T04:32:04.766Z,5.62
2018-08-04T04:34:34.285Z,5.85
2018-08-04T04:37:03.230Z,6.72
2018-08-04T04:39:32.147Z,9.50
2018-08-04T04:42:01.074Z,6.25
2018-08-04T04:44:30.441Z,6.42
2018-08-04T04:46:59.319Z,6.67
2018-08-04T04:49:28.487Z,6.30
2018-08-04T04:51:57.369Z,6.72
2018-08-04T04:54:26.330Z,7.42
2018-08-04T04:56:55.239Z,6.65
2018-08-04T04:59:24.308Z,6.28
2018-08-04T05:01:52.902Z,7.80
2018-08-04T05:04:21.961Z,8.28
2018-08-04T05:06:50.821Z,6.85
2018-08-04T05:09:19.723Z,6.75
2018-08-04T05:11:48.592Z,6.90
2018-08-04T05:14:17.572Z,8.98
2018-08-04T05:16:46.672Z,6.97
2018-08-04T05:19:15.611Z,7.42
2018-08-04T05:21:44.571Z,8.53
2018-08-04T05:24:13.705Z,7.62
2018-08-04T05:26:42.596Z,7.20
2018-08-04T05:29:11.496Z,6.70
2018-08-04T05:31:40.752Z,6.60
2018-08-04T05:34:09.705Z,6.05
2018-08-04T05:36:38.612Z,5.00
2018-08-04T05:39:09.265Z,6.95
2018-08-04T05:41:38.135Z,7.30
2018-08-04T05:44:07.694Z,8.33
2018-08-04T05:46:36.827Z,5.92
2018-08-04T05:49:05.779Z,7.75
2018-08-04T05:51:35.019Z,5.75
2018-08-04T05:54:04.035Z,6.30
2018-08-04T05:56:32.903Z,7.83
2018-08-04T05:59:01.773Z,8.25
2018-08-04T06:01:30.396Z,7.00
2018-08-04T06:03:59.308Z,7.60
2018-08-04T06:06:28.158Z,8.40
2018-08-04T06:08:57.039Z,7.70
2018-08-04T06:11:25.911Z,8.15
2018-08-04T06:13:54.919Z,8.73
2018-08-04T06:16:23.802Z,10.75
2018-08-04T06:18:53.107Z,9.15
2018-08-04T06:21:21.999Z,8.63
2018-08-04T06:23:50.869Z,9.93
2018-08-04T06:26:19.841Z,11.53
2018-08-04T06:28:48.504Z,10.38
2018-08-04T06:31:17.382Z,11.05
2018-08-04T06:33:47.577Z,10.82
2018-08-04T06:36:16.818Z,9.58
2018-08-04T06:38:45.761Z,8.20
2018-08-04T06:41:14.620Z,9.13
2018-08-04T06:43:43.536Z,8.75
2018-08-04T06:46:12.525Z,8.75
2018-08-04T06:50:10.599Z,11.78
2018-08-04T06:52:39.514Z,7.42
2018-08-04T06:55:08.795Z,7.83
2018-08-04T06:57:37.657Z,8.50
2018-08-04T07:00:07.077Z,6.70
2018-08-04T07:02:35.991Z,5.47
2018-08-04T07:05:05.196Z,5.90
2018-08-04T07:07:34.130Z,8.03
2018-08-04T07:10:03.379Z,8.98
2018-08-04T07:12:32.294Z,7.50
2018-08-04T07:15:01.195Z,7.97
2018-08-04T07:17:30.104Z,11.25
2018-08-04T07:19:59.066Z,8.15
2018-08-04T07:22:28.300Z,8.55
2018-08-04T07:24:57.374Z,10.28
2018-08-04T07:27:26.252Z,8.60
2018-08-04T07:29:55.134Z,8.80
2018-08-04T07:32:24.102Z,11.33
2018-08-04T07:34:53.053Z,7.70
2018-08-04T07:37:21.861Z,8.38
2018-08-04T07:39:50.789Z,8.25
2018-08-04T07:42:19.676Z,6.65
2018-08-04T07:44:48.672Z,7.37
2018-08-04T07:47:17.603Z,7.60
2018-08-04T07:49:46.642Z,4.17
2018-08-04T07:52:15.822Z,6.47
2018-08-04T07:54:44.954Z,7.15
2018-08-04T07:57:13.853Z,4.72
2018-08-04T07:59:42.847Z,5.35
2018-08-04T08:02:11.518Z,4.30
2018-08-04T08:04:40.476Z,3.75
2018-08-04T08:07:09.476Z,4.55
2018-08-04T08:09:38.674Z,3.58
2018-08-04T08:12:07.737Z,4.22
2018-08-04T08:14:36.696Z,3.22
2018-08-04T08:17:05.848Z,4.78
2018-08-04T08:19:34.798Z,4.45
2018-08-04T08:22:03.859Z,5.20
2018-08-04T08:24:32.783Z,5.15
2018-08-04T08:27:01.633Z,3.85
2018-08-04T08:29:30.525Z,4.05
2018-08-04T08:31:59.805Z,3.25
2018-08-04T08:34:28.782Z,6.28
2018-08-04T08:36:57.732Z,3.50
2018-08-04T08:39:26.594Z,3.95
2018-08-04T08:41:55.470Z,4.08
2018-08-04T08:44:24.501Z,3.65
2018-08-04T08:46:53.528Z,5.00
2018-08-04T08:49:22.516Z,3.27
2018-08-04T08:51:51.437Z,4.45
2018-08-04T08:54:20.313Z,4.05
2018-08-04T08:56:49.576Z,3.70
2018-08-04T08:59:18.773Z,3.55
2018-08-04T09:01:47.607Z,3.47
2018-08-04T09:04:16.542Z,4.42
2018-08-04T09:06:45.431Z,5.42
2018-08-04T09:09:14.351Z,5.30
2018-08-04T09:11:42.996Z,3.93
2018-08-04T09:14:11.949Z,7.55
2018-08-04T09:16:40.556Z,4.47
2018-08-04T09:19:09.254Z,5.83
2018-08-04T09:21:37.904Z,3.03
2018-08-04T09:24:06.629Z,3.80
2018-08-04T09:26:35.279Z,3.47
2018-08-04T09:29:03.905Z,5.37
2018-08-04T09:31:32.552Z,4.70
2018-08-04T09:34:01.522Z,3.10
2018-08-04T09:36:30.231Z,3.53
2018-08-04T09:38:59.581Z,5.33
2018-08-04T09:41:28.187Z,4.50
2018-08-04T09:43:56.891Z,6.33
2018-08-04T09:46:25.824Z,3.63
2018-08-04T09:48:54.495Z,4.97
2018-08-04T09:51:23.443Z,4.77
2018-08-04T09:53:52.123Z,3.47
2018-08-04T09:56:20.738Z,3.80
2018-08-04T09:58:49.376Z,4.37
2018-08-04T10:01:23.400Z,3.97
2018-08-04T10:03:52.080Z,4.70
2018-08-04T10:06:20.706Z,4.13
2018-08-04T10:08:49.403Z,5.07
2018-08-04T10:11:18.077Z,4.83
2018-08-04T10:13:46.891Z,4.27
2018-08-04T10:16:15.535Z,3.03
2018-08-04T10:18:44.303Z,4.77
2018-08-04T10:21:12.937Z,4.60
2018-08-04T10:23:41.933Z,4.10
2018-08-04T10:26:10.772Z,4.50
2018-08-04T10:28:39.336Z,4.77
2018-08-04T10:31:08.202Z,4.57
2018-08-04T10:33:37.306Z,8.60
2018-08-04T10:36:06.228Z,6.47
2018-08-04T10:38:34.814Z,4.13
2018-08-04T10:41:03.651Z,4.70
2018-08-04T10:43:32.337Z,4.47
2018-08-04T10:46:00.948Z,4.27
2018-08-04T10:48:29.581Z,5.07
2018-08-04T10:50:58.159Z,6.00
2018-08-04T10:53:26.756Z,4.57
2018-08-04T10:55:55.417Z,4.53
2018-08-04T10:58:24.370Z,2.53
2018-08-04T11:00:53.212Z,4.35
2018-08-04T11:03:21.847Z,5.33
2018-08-04T11:05:50.467Z,3.73
2018-08-04T11:08:19.120Z,4.07
2018-08-04T11:10:47.784Z,5.43
2018-08-04T11:13:16.593Z,5.57
2018-08-04T11:15:45.209Z,4.20
2018-08-04T11:18:13.856Z,7.07
2018-08-04T11:20:42.666Z,4.10
2018-08-04T11:23:11.656Z,4.03
2018-08-04T11:25:40.266Z,7.23
2018-08-04T11:28:08.860Z,4.30
2018-08-04T11:30:37.479Z,3.27
2018-08-04T11:33:06.191Z,4.43
2018-08-04T11:35:34.827Z,5.33
2018-08-04T11:38:03.486Z,4.63
2018-08-04T11:40:32.143Z,5.73
2018-08-04T11:43:00.764Z,3.77
2018-08-04T11:45:29.374Z,4.13
2018-08-04T11:47:58.191Z,5.70
2018-08-04T11:50:27.299Z,5.00
2018-08-04T11:52:55.898Z,4.03
2018-08-04T11:55:24.528Z,4.53
2018-08-04T11:57:53.186Z,4.10
2018-08-04T12:00:21.794Z,4.40
2018-08-04T12:02:50.631Z,3.27
2018-08-04T12:05:19.224Z,3.73
2018-08-04T12:07:48.037Z,4.03
2018-08-04T12:10:18.078Z,3.60
2018-08-04T12:12:48.001Z,4.17
2018-08-04T12:15:16.771Z,3.93
2018-08-04T12:17:45.737Z,3.93
2018-08-04T12:20:14.430Z,2.63
2018-08-04T12:22:42.795Z,4.90
2018-08-04T12:25:11.358Z,3.03
2018-08-04T12:27:40.340Z,3.57
2018-08-04T12:30:09.462Z,2.87
2018-08-04T12:32:38.240Z,3.43
2018-08-04T12:35:07.834Z,3.77
2018-08-04T12:37:36.485Z,2.70
2018-08-04T12:40:05.561Z,3.70
2018-08-04T12:42:34.281Z,2.03
2018-08-04T12:45:03.218Z,2.83
2018-08-04T12:47:31.850Z,4.80
2018-08-04T12:50:00.431Z,3.23
2018-08-04T12:52:29.024Z,2.90
2018-08-04T12:54:57.638Z,2.37
2018-08-04T12:57:26.278Z,2.23
2018-08-04T12:59:55.025Z,2.17
2018-08-04T13:02:23.599Z,2.73
2018-08-04T13:04:52.455Z,4.28
2018-08-04T13:07:21.161Z,3.73
2018-08-04T13:09:49.781Z,3.97
2018-08-04T13:12:18.387Z,2.93
2018-08-04T13:14:47.003Z,5.60
2018-08-04T13:17:15.752Z,2.67
2018-08-04T13:19:45.480Z,3.93
2018-08-04T13:22:14.089Z,3.10
2018-08-04T13:24:42.730Z,5.23
2018-08-04T13:27:11.273Z,4.20
2018-08-04T13:29:39.905Z,3.57
2018-08-04T13:32:08.541Z,3.80
2018-08-04T13:34:37.455Z,4.13
2018-08-04T13:37:06.596Z,4.73
2018-08-04T13:39:35.290Z,4.00
2018-08-04T13:42:04.225Z,5.33
2018-08-04T13:44:32.783Z,2.47
2018-08-04T13:47:01.399Z,2.93
2018-08-04T13:49:29.984Z,2.13
2018-08-04T13:51:58.980Z,2.50
2018-08-04T13:57:21.074Z,2.20
2018-08-04T13:59:49.681Z,3.60
2018-08-04T14:02:18.351Z,3.77
2018-08-04T14:04:46.948Z,2.90
2018-08-04T14:07:15.520Z,3.33
2018-08-04T14:09:44.495Z,2.00
2018-08-04T14:12:13.110Z,2.80
2018-08-04T14:14:41.713Z,2.47
2018-08-04T14:17:10.298Z,1.83
2018-08-04T14:19:39.109Z,2.37
2018-08-04T14:22:07.661Z,2.50
2018-08-04T14:24:36.242Z,2.67
2018-08-04T14:27:05.264Z,3.20
2018-08-04T14:29:34.234Z,3.00
2018-08-04T14:32:03.178Z,3.05
2018-08-04T14:34:32.048Z,2.30
2018-08-04T14:37:00.957Z,5.12
2018-08-04T14:39:29.795Z,3.62
2018-08-04T14:41:58.698Z,4.53
2018-08-04T14:44:27.578Z,8.43
2018-08-04T14:46:56.198Z,4.62
2018-08-04T14:49:25.107Z,8.23
2018-08-04T14:51:54.018Z,7.92
2018-08-04T14:54:22.908Z,6.78
2018-08-04T14:56:51.852Z,6.28
2018-08-04T14:59:20.856Z,8.45
2018-08-04T15:01:49.658Z,9.10
2018-08-04T15:04:18.729Z,10.23
2018-08-04T15:06:49.037Z,10.30
2018-08-04T15:09:17.927Z,10.50
2018-08-04T15:11:46.887Z,12.80
2018-08-04T15:14:15.918Z,13.03
2018-08-04T15:16:44.906Z,19.17
2018-08-04T15:19:13.859Z,15.05
2018-08-04T15:21:42.839Z,14.63
2018-08-04T15:24:11.944Z,14.53
2018-08-04T15:26:40.941Z,13.40
2018-08-04T15:29:09.848Z,11.73
2018-08-04T15:31:38.774Z,11.45
2018-08-04T15:34:07.674Z,11.55
2018-08-04T15:36:36.787Z,10.15
2018-08-04T15:39:08.100Z,6.70
2018-08-04T15:41:37.039Z,8.60
2018-08-04T15:44:05.978Z,7.05
2018-08-04T15:46:34.805Z,5.65
2018-08-04T15:49:03.769Z,4.50
2018-08-04T15:51:32.375Z,5.83
2018-08-04T15:54:01.256Z,6.53
2018-08-04T15:56:29.859Z,7.80
2018-08-04T15:58:59.110Z,6.35
2018-08-04T16:01:27.679Z,6.60
2018-08-04T16:03:56.673Z,5.50
2018-08-04T16:06:25.567Z,5.75
2018-08-04T16:08:54.446Z,4.60
2018-08-04T16:11:23.862Z,6.45
2018-08-04T16:13:52.742Z,7.28
2018-08-04T16:16:21.626Z,5.42
2018-08-04T16:18:51.148Z,8.15
2018-08-04T16:21:20.052Z,7.25
2018-08-04T16:23:48.690Z,9.93
2018-08-04T16:26:17.626Z,6.55
2018-08-04T16:28:46.252Z,5.37
2018-08-04T16:31:17.999Z,6.07
2018-08-04T16:33:46.701Z,8.97
2018-08-04T16:36:15.494Z,6.73
2018-08-04T16:38:44.077Z,8.87
2018-08-04T16:41:12.665Z,8.13
2018-08-04T16:43:41.286Z,8.83
2018-08-04T16:46:09.974Z,10.07
2018-08-04T16:48:38.635Z,6.27
2018-08-04T16:51:07.649Z,5.00
2018-08-04T16:53:36.211Z,8.43
2018-08-04T16:56:04.902Z,5.27
2018-08-04T16:58:33.505Z,7.27
2018-08-04T17:01:01.848Z,8.05
2018-08-04T17:03:30.415Z,8.27
2018-08-04T17:05:59.014Z,7.73
2018-08-04T17:08:27.605Z,7.07
2018-08-04T17:10:56.464Z,8.37
2018-08-04T17:13:25.008Z,8.90
2018-08-04T17:15:53.593Z,8.90
2018-08-04T17:18:22.533Z,10.53
2018-08-04T17:20:51.597Z,6.55
2018-08-04T17:23:20.481Z,6.33
2018-08-04T17:25:49.379Z,5.87
2018-08-04T17:28:18.254Z,8.08
2018-08-04T17:30:47.147Z,7.67
2018-08-04T17:33:16.023Z,9.43
2018-08-04T17:35:44.855Z,9.78
2018-08-04T17:38:13.730Z,7.85
2018-08-04T17:40:42.662Z,11.25
2018-08-04T17:43:11.563Z,6.33
2018-08-04T17:45:40.407Z,11.53
2018-08-04T17:48:09.631Z,6.87
2018-08-04T17:50:38.522Z,9.75
2018-08-04T17:53:07.707Z,9.28
2018-08-04T17:55:36.643Z,9.85
2018-08-04T17:58:05.904Z,7.55
2018-08-04T18:00:35.806Z,9.64
2018-08-04T18:03:04.732Z,12.00
2018-08-04T18:05:33.618Z,8.93
2018-08-04T18:08:02.598Z,6.08
2018-08-04T18:10:31.544Z,9.15
2018-08-04T18:13:00.716Z,8.03
2018-08-04T18:15:29.908Z,10.50
2018-08-04T18:17:58.828Z,9.65
2018-08-04T18:20:27.814Z,10.35
2018-08-04T18:22:56.692Z,10.15
2018-08-04T18:25:25.632Z,11.20
2018-08-04T18:27:54.518Z,10.32
2018-08-04T18:30:23.799Z,9.78
2018-08-04T18:32:52.660Z,9.38
2018-08-04T18:35:21.552Z,11.88
2018-08-04T18:37:50.479Z,14.15
2018-08-04T18:40:19.582Z,19.45
2018-08-04T18:42:48.439Z,13.53
2018-08-04T18:45:17.674Z,12.33
2018-08-04T18:47:47.175Z,11.80
2018-08-04T18:50:16.076Z,8.80
2018-08-04T18:52:45.013Z,9.75
2018-08-04T18:55:13.874Z,11.45
2018-08-04T18:57:42.752Z,15.45
2018-08-04T19:00:11.615Z,12.37
2018-08-04T19:02:40.211Z,10.70
2018-08-04T19:05:09.404Z,11.85
2018-08-04T19:07:38.323Z,10.68
2018-08-04T19:10:07.549Z,11.10
2018-08-04T19:12:36.787Z,9.98
2018-08-04T19:15:06.035Z,8.85
2018-08-04T19:17:34.953Z,12.95
2018-08-04T19:20:03.994Z,10.68
2018-08-04T19:22:32.941Z,14.85
2018-08-04T19:25:01.843Z,8.20
2018-08-04T19:27:30.767Z,13.40
2018-08-04T19:29:59.632Z,12.43
2018-08-04T19:32:28.535Z,13.98
2018-08-04T19:34:57.435Z,8.35
2018-08-04T19:37:26.334Z,7.40
2018-08-04T19:39:55.179Z,9.65
2018-08-04T19:42:24.090Z,11.20
2018-08-04T19:44:52.983Z,7.53
2018-08-04T19:47:21.874Z,12.60
2018-08-04T19:49:51.090Z,7.03
2018-08-04T19:52:20.014Z,8.88
2018-08-04T19:54:48.917Z,9.25
2018-08-04T19:57:18.142Z,14.05
2018-08-04T19:59:47.160Z,19.30
2018-08-04T20:02:16.108Z,9.90
2018-08-04T20:04:45.014Z,9.13
2018-08-04T20:07:13.898Z,14.60
2018-08-04T20:09:42.795Z,8.80
2018-08-04T20:12:11.703Z,12.70
2018-08-04T20:14:40.743Z,10.50
2018-08-04T20:17:09.728Z,18.00
2018-08-04T20:19:38.761Z,12.70
2018-08-04T20:22:11.781Z,11.83
2018-08-04T20:24:40.691Z,12.07
2018-08-04T20:27:09.542Z,12.45
2018-08-04T20:29:38.486Z,11.12
2018-08-04T20:32:08.047Z,9.25
2018-08-04T20:34:36.950Z,10.03
2018-08-04T20:37:05.918Z,11.57
2018-08-04T20:39:34.793Z,12.78
2018-08-04T20:42:04.043Z,18.00
2018-08-04T20:44:33.106Z,15.83
2018-08-04T20:47:02.218Z,26.52
2018-08-04T20:49:31.124Z,9.90
2018-08-04T20:52:00.049Z,14.45
2018-08-04T20:54:28.902Z,17.95
2018-08-04T20:56:57.830Z,9.63
2018-08-04T20:59:26.866Z,16.80
2018-08-04T21:02:01.458Z,14.25
2018-08-04T21:04:31.694Z,17.67
2018-08-04T21:07:01.102Z,12.95
2018-08-04T21:09:31.085Z,12.88
2018-08-04T21:12:00.326Z,7.33
2018-08-04T21:14:30.340Z,11.22
2018-08-04T21:17:00.054Z,7.50
2018-08-04T21:19:29.292Z,9.23
2018-08-04T21:21:58.813Z,11.48
2018-08-04T21:24:28.028Z,7.75
2018-08-04T21:26:57.279Z,9.08
2018-08-04T21:29:26.237Z,12.10
2018-08-04T21:31:58.288Z,10.00
2018-08-04T21:34:27.859Z,7.97
2018-08-04T21:36:57.049Z,6.70
2018-08-04T21:39:26.243Z,10.40
2018-08-04T21:41:55.443Z,10.43
2018-08-04T21:44:24.758Z,9.85
2018-08-04T21:46:53.830Z,7.47
2018-08-04T21:49:22.815Z,8.20
2018-08-04T21:51:51.890Z,10.95
2018-08-04T21:57:17.766Z,8.60
2018-08-04T21:59:46.651Z,7.97
2018-08-04T22:02:15.560Z,6.35
2018-08-04T22:04:44.874Z,7.33
2018-08-04T22:07:50.497Z,7.55
2018-08-04T22:10:19.500Z,4.78
2018-08-04T22:12:48.518Z,7.03
2018-08-04T22:15:17.518Z,5.67
2018-08-04T22:17:47.127Z,8.53
2018-08-04T22:20:17.224Z,8.93
2018-08-04T22:22:46.188Z,6.05
2018-08-04T22:25:16.778Z,6.58
2018-08-04T22:27:45.698Z,7.55
2018-08-04T22:30:15.716Z,6.00
2018-08-04T22:32:45.144Z,6.67
2018-08-04T22:35:14.052Z,9.05
2018-08-04T22:37:43.247Z,7.15
2018-08-04T22:40:13.499Z,8.18
2018-08-04T22:42:42.853Z,7.55
2018-08-04T22:45:51.975Z,6.67
2018-08-04T22:48:21.422Z,8.38
2018-08-04T22:50:50.720Z,7.12
2018-08-04T22:53:20.903Z,6.55
2018-08-04T22:55:49.802Z,5.97
2018-08-04T22:58:18.749Z,5.15
2018-08-04T23:00:48.015Z,9.10
2018-08-04T23:03:26.531Z,6.72
2018-08-04T23:05:55.843Z,7.50
2018-08-04T23:08:25.294Z,6.20
2018-08-04T23:10:54.808Z,6.62
2018-08-04T23:13:24.415Z,12.10
2018-08-04T23:15:53.489Z,7.33
2018-08-04T23:18:23.178Z,7.87
2018-08-04T23:20:52.740Z,6.08
2018-08-04T23:23:21.671Z,7.15
2018-08-04T23:25:50.896Z,6.72
2018-08-04T23:28:20.022Z,6.17
2018-08-04T23:30:48.952Z,5.70
2018-08-04T23:33:17.892Z,6.00
2018-08-04T23:35:47.157Z,4.67
2018-08-04T23:38:16.242Z,7.35
2018-08-04T23:40:45.461Z,5.67
2018-08-04T23:43:14.358Z,9.18
2018-08-04T23:45:43.281Z,9.23
2018-08-04T23:48:12.174Z,7.58
2018-08-04T23:50:41.451Z,6.05
2018-08-04T23:53:10.335Z,8.70
2018-08-04T23:55:39.267Z,9.05
2018-08-04T23:58:08.167Z,9.85
